Cleveland Corner, Vermont
Current Conditions -  °F | °C
As of 6:54 PM on Wednesday 22 Oct 2014 (Local Time) from KMVL Reporting Station
Light Rain Light Rain  
Wind Chill: 51°   Ceiling: 4300
Heat Index: 51°   Visibility: 10mi
Dew Point: 40°   Wind: 8mph
Humidity: 66%   Direction: 10°N
Pressure: 30.14"   Gusts: NA
Location:  44.5482°N, 72.6315°W
Report Text: KMVL 222254Z AUTO 01007KT 10SM -RA BKN043 OVC110 11/04 A3014 RMK AO2 RAB46 SLP212 P0000 T01060044
Loading
Personal Weather Stations






























Interactive Weather Map
Tropical Storm Tracking
New forecast layout! Learn more

10-Day Weather Forecast

Advertisements
Track Severe Weather on mobile